OMD216 KLAS-KMZJ
Flight info
| Callsign | OMD216 |
|---|---|
| Flight time | 0h 49m |
| Altitude | 31000 |
| Route | RASLR3 ZAYNE DRK MAIER BRUSR TFD |
| Aircraft | A321/M-SDE3FGHIRWY/LB1 |
Departure
| Time | 2026-05-07 20:58 |
|---|---|
| Airport | Harry Reid International Airport (KLAS) |
Arrival
| Time | 2026-05-07 21:47 |
|---|---|
| Airport | Pinal Airpark (KMZJ) |
| Time | Latitude | Longitude | Altitude | Speed | Heading |
|---|---|---|---|---|---|
| 2026-05-07 20:36 | 36.08914 | -115.15412 | 2108 ft | 0 kts | 89° |
| 2026-05-07 20:49 | 36.08914 | -115.15416 | 2108 ft | 2 kts | 89° |
| 2026-05-07 20:49 | 36.08914 | -115.15435 | 2109 ft | 2 kts | 89° |
| 2026-05-07 20:49 | 36.08914 | -115.15453 | 2110 ft | 2 kts | 89° |
| 2026-05-07 20:50 | 36.08914 | -115.15472 | 2110 ft | 2 kts | 89° |
| 2026-05-07 20:50 | 36.08913 | -115.15489 | 2111 ft | 0 kts | 89° |
| 2026-05-07 20:50 | 36.08913 | -115.15497 | 2111 ft | 1 kts | 54° |
| 2026-05-07 20:50 | 36.08908 | -115.15501 | 2112 ft | 0 kts | 3° |
| 2026-05-07 20:51 | 36.08901 | -115.15501 | 2112 ft | 1 kts | 359° |
| 2026-05-07 20:53 | 36.08904 | -115.15501 | 2111 ft | 2 kts | 359° |
| 2026-05-07 20:54 | 36.08928 | -115.15501 | 2110 ft | 4 kts | 360° |
| 2026-05-07 20:54 | 36.08973 | -115.15501 | 2109 ft | 7 kts | 1° |
| 2026-05-07 20:54 | 36.09037 | -115.15507 | 2107 ft | 10 kts | 349° |
| 2026-05-07 20:54 | 36.09155 | -115.15531 | 2106 ft | 21 kts | 12° |
| 2026-05-07 20:55 | 36.09295 | -115.15456 | 2101 ft | 21 kts | 26° |
| 2026-05-07 20:55 | 36.09434 | -115.15373 | 2095 ft | 22 kts | 25° |
| 2026-05-07 20:55 | 36.09577 | -115.15292 | 2091 ft | 19 kts | 24° |
| 2026-05-07 20:55 | 36.09701 | -115.15224 | 2087 ft | 18 kts | 24° |
| 2026-05-07 20:56 | 36.09779 | -115.15215 | 2086 ft | 6 kts | 325° |
| 2026-05-07 20:56 | 36.09800 | -115.15247 | 2086 ft | 4 kts | 299° |
| 2026-05-07 20:56 | 36.09812 | -115.15277 | 2087 ft | 5 kts | 295° |
| 2026-05-07 20:56 | 36.09830 | -115.15325 | 2087 ft | 7 kts | 294° |
| 2026-05-07 20:57 | 36.09840 | -115.15356 | 2088 ft | 2 kts | 275° |
| 2026-05-07 20:57 | 36.09828 | -115.15372 | 2089 ft | 3 kts | 211° |
| 2026-05-07 20:57 | 36.09813 | -115.15382 | 2089 ft | 0 kts | 206° |
| 2026-05-07 20:58 | 36.09780 | -115.15402 | 2090 ft | 31 kts | 205° |
| 2026-05-07 20:58 | 36.09311 | -115.15668 | 2106 ft | 113 kts | 205° |
| 2026-05-07 20:58 | 36.08400 | -115.16180 | 2369 ft | 155 kts | 205° |
| 2026-05-07 20:58 | 36.07526 | -115.16704 | 3198 ft | 144 kts | 208° |
| 2026-05-07 20:59 | 36.06584 | -115.17304 | 3771 ft | 158 kts | 207° |
| 2026-05-07 20:59 | 36.05549 | -115.17928 | 4282 ft | 173 kts | 206° |
| 2026-05-07 20:59 | 36.04405 | -115.18593 | 4807 ft | 188 kts | 206° |
| 2026-05-07 20:59 | 36.03170 | -115.19284 | 5423 ft | 199 kts | 205° |
| 2026-05-07 21:00 | 36.01830 | -115.20067 | 5948 ft | 217 kts | 207° |
| 2026-05-07 21:00 | 36.00388 | -115.20909 | 6393 ft | 242 kts | 206° |
| 2026-05-07 21:00 | 35.98734 | -115.21718 | 6896 ft | 266 kts | 198° |
| 2026-05-07 21:00 | 35.96820 | -115.22161 | 7517 ft | 286 kts | 181° |
| 2026-05-07 21:01 | 35.94794 | -115.21859 | 8360 ft | 295 kts | 169° |
| 2026-05-07 21:01 | 35.92799 | -115.21263 | 9313 ft | 300 kts | 160° |
| 2026-05-07 21:01 | 35.91013 | -115.19888 | 10250 ft | 303 kts | 135° |
| 2026-05-07 21:01 | 35.89742 | -115.17753 | 10989 ft | 314 kts | 119° |
| 2026-05-07 21:02 | 35.88615 | -115.15327 | 11610 ft | 331 kts | 117° |
| 2026-05-07 21:02 | 35.87462 | -115.12768 | 12387 ft | 341 kts | 115° |
| 2026-05-07 21:02 | 35.86460 | -115.10101 | 13360 ft | 343 kts | 110° |
| 2026-05-07 21:02 | 35.85670 | -115.07307 | 14332 ft | 344 kts | 105° |
| 2026-05-07 21:03 | 35.84978 | -115.04460 | 15235 ft | 348 kts | 104° |
| 2026-05-07 21:03 | 35.84282 | -115.01540 | 16114 ft | 353 kts | 103° |
| 2026-05-07 21:03 | 35.83581 | -114.98595 | 16973 ft | 358 kts | 103° |
| 2026-05-07 21:03 | 35.82868 | -114.95619 | 17823 ft | 362 kts | 103° |
| 2026-05-07 21:04 | 35.82146 | -114.92617 | 18643 ft | 366 kts | 103° |
| 2026-05-07 21:04 | 35.81407 | -114.89555 | 19433 ft | 371 kts | 103° |
| 2026-05-07 21:04 | 35.80656 | -114.86459 | 20218 ft | 375 kts | 103° |
| 2026-05-07 21:04 | 35.79903 | -114.83353 | 20949 ft | 380 kts | 103° |
| 2026-05-07 21:05 | 35.79134 | -114.80196 | 21675 ft | 384 kts | 103° |
| 2026-05-07 21:05 | 35.78364 | -114.77035 | 22393 ft | 388 kts | 103° |
| 2026-05-07 21:05 | 35.77573 | -114.73790 | 23074 ft | 393 kts | 103° |
| 2026-05-07 21:05 | 35.76780 | -114.70547 | 23744 ft | 397 kts | 103° |
| 2026-05-07 21:06 | 35.75970 | -114.67236 | 24437 ft | 400 kts | 103° |
| 2026-05-07 21:06 | 35.75163 | -114.63943 | 25079 ft | 404 kts | 102° |
| 2026-05-07 21:06 | 35.74353 | -114.60632 | 25688 ft | 407 kts | 102° |
| 2026-05-07 21:06 | 35.73524 | -114.57258 | 26294 ft | 410 kts | 102° |
| 2026-05-07 21:07 | 35.72683 | -114.53834 | 26885 ft | 413 kts | 102° |
| 2026-05-07 21:07 | 35.71851 | -114.50459 | 27441 ft | 416 kts | 102° |
| 2026-05-07 21:07 | 35.70998 | -114.47039 | 27991 ft | 419 kts | 103° |
| 2026-05-07 21:07 | 35.69816 | -114.43715 | 28513 ft | 428 kts | 114° |
| 2026-05-07 21:08 | 35.68132 | -114.40640 | 29167 ft | 433 kts | 124° |
| 2026-05-07 21:08 | 35.66027 | -114.37959 | 29924 ft | 435 kts | 133° |
| 2026-05-07 21:08 | 35.63725 | -114.35487 | 30566 ft | 435 kts | 134° |
| 2026-05-07 21:08 | 35.61351 | -114.33010 | 31002 ft | 438 kts | 135° |
| 2026-05-07 21:09 | 35.58991 | -114.30549 | 31103 ft | 439 kts | 135° |
| 2026-05-07 21:09 | 35.54319 | -114.25658 | 31108 ft | 441 kts | 135° |
| 2026-05-07 21:09 | 35.51952 | -114.23164 | 31113 ft | 455 kts | 135° |
| 2026-05-07 21:10 | 35.49499 | -114.20579 | 31114 ft | 468 kts | 135° |
| 2026-05-07 21:10 | 35.46952 | -114.17898 | 31103 ft | 480 kts | 135° |
| 2026-05-07 21:10 | 35.44385 | -114.15201 | 31098 ft | 485 kts | 135° |
| 2026-05-07 21:11 | 35.39232 | -114.09796 | 31084 ft | 487 kts | 135° |
| 2026-05-07 21:11 | 35.32207 | -114.00948 | 31080 ft | 476 kts | 120° |
| 2026-05-07 21:12 | 35.29169 | -113.93753 | 31079 ft | 468 kts | 106° |
| 2026-05-07 21:12 | 35.27412 | -113.86040 | 31080 ft | 464 kts | 99° |
| 2026-05-07 21:13 | 35.25867 | -113.78307 | 31076 ft | 463 kts | 99° |
| 2026-05-07 21:13 | 35.24195 | -113.70601 | 31117 ft | 465 kts | 102° |
| 2026-05-07 21:14 | 35.21947 | -113.63174 | 31165 ft | 468 kts | 108° |
| 2026-05-07 21:14 | 35.19023 | -113.55969 | 31173 ft | 471 kts | 114° |
| 2026-05-07 21:15 | 35.15859 | -113.48890 | 31192 ft | 472 kts | 114° |
| 2026-05-07 21:15 | 35.12671 | -113.41777 | 31200 ft | 472 kts | 114° |
| 2026-05-07 21:16 | 35.09522 | -113.34739 | 31196 ft | 471 kts | 114° |
| 2026-05-07 21:16 | 35.06358 | -113.27685 | 31199 ft | 470 kts | 114° |
| 2026-05-07 21:17 | 35.03202 | -113.20652 | 31214 ft | 471 kts | 114° |
| 2026-05-07 21:17 | 35.00034 | -113.13611 | 31236 ft | 470 kts | 114° |
| 2026-05-07 21:18 | 34.96862 | -113.06575 | 31243 ft | 469 kts | 114° |
| 2026-05-07 21:18 | 34.93696 | -112.99571 | 31230 ft | 469 kts | 114° |
| 2026-05-07 21:19 | 34.90521 | -112.92557 | 31238 ft | 469 kts | 114° |
| 2026-05-07 21:19 | 34.87365 | -112.85603 | 31235 ft | 467 kts | 114° |
| 2026-05-07 21:20 | 34.84207 | -112.78652 | 31217 ft | 468 kts | 114° |
| 2026-05-07 21:20 | 34.81036 | -112.71685 | 31198 ft | 469 kts | 114° |
| 2026-05-07 21:21 | 34.77854 | -112.64706 | 31151 ft | 469 kts | 114° |
| 2026-05-07 21:21 | 34.74683 | -112.57769 | 31123 ft | 467 kts | 114° |
| 2026-05-07 21:22 | 34.71140 | -112.51058 | 31115 ft | 472 kts | 121° |
| 2026-05-07 21:22 | 34.66715 | -112.44946 | 31122 ft | 479 kts | 130° |
| 2026-05-07 21:23 | 34.61573 | -112.39584 | 31123 ft | 482 kts | 136° |
| 2026-05-07 21:23 | 34.56250 | -112.34396 | 31137 ft | 481 kts | 136° |
| 2026-05-07 21:24 | 34.51023 | -112.29302 | 31129 ft | 481 kts | 136° |
| 2026-05-07 21:24 | 34.45377 | -112.24857 | 31127 ft | 487 kts | 147° |
| 2026-05-07 21:25 | 34.39064 | -112.21737 | 31107 ft | 495 kts | 159° |
| 2026-05-07 21:25 | 34.32308 | -112.19817 | 31110 ft | 498 kts | 164° |
| 2026-05-07 21:26 | 34.25492 | -112.18100 | 31086 ft | 497 kts | 164° |
| 2026-05-07 21:26 | 34.18659 | -112.16348 | 31087 ft | 498 kts | 163° |
| 2026-05-07 21:27 | 34.11842 | -112.14580 | 31073 ft | 498 kts | 163° |
| 2026-05-07 21:27 | 34.04991 | -112.13055 | 31065 ft | 497 kts | 166° |
| 2026-05-07 21:28 | 33.98152 | -112.11740 | 31022 ft | 499 kts | 166° |
| 2026-05-07 21:28 | 33.91240 | -112.10419 | 31001 ft | 499 kts | 166° |
| 2026-05-07 21:29 | 33.84300 | -112.09088 | 30940 ft | 499 kts | 166° |
| 2026-05-07 21:29 | 33.77388 | -112.07762 | 30929 ft | 500 kts | 166° |
| 2026-05-07 21:30 | 33.70472 | -112.06441 | 30928 ft | 499 kts | 166° |
| 2026-05-07 21:30 | 33.63527 | -112.05112 | 30928 ft | 500 kts | 166° |
| 2026-05-07 21:31 | 33.56558 | -112.03782 | 30919 ft | 500 kts | 166° |
| 2026-05-07 21:31 | 33.49614 | -112.02457 | 30922 ft | 501 kts | 166° |
| 2026-05-07 21:32 | 33.42672 | -112.01144 | 30854 ft | 495 kts | 166° |
| 2026-05-07 21:32 | 33.39290 | -112.00504 | 30245 ft | 489 kts | 166° |
| 2026-05-07 21:32 | 33.35939 | -111.99871 | 29705 ft | 480 kts | 165° |
| 2026-05-07 21:33 | 33.32634 | -111.99244 | 29192 ft | 471 kts | 165° |
| 2026-05-07 21:33 | 33.29391 | -111.98630 | 28641 ft | 463 kts | 165° |
| 2026-05-07 21:33 | 33.26207 | -111.98025 | 27877 ft | 460 kts | 165° |
| 2026-05-07 21:33 | 33.23009 | -111.97413 | 27018 ft | 460 kts | 165° |
| 2026-05-07 21:34 | 33.19848 | -111.96812 | 26304 ft | 455 kts | 166° |
| 2026-05-07 21:34 | 33.16727 | -111.96223 | 25667 ft | 448 kts | 166° |
| 2026-05-07 21:34 | 33.13625 | -111.95636 | 24989 ft | 444 kts | 165° |
| 2026-05-07 21:34 | 33.10611 | -111.95067 | 24373 ft | 437 kts | 165° |
| 2026-05-07 21:35 | 33.07598 | -111.94481 | 23715 ft | 429 kts | 163° |
| 2026-05-07 21:35 | 33.04745 | -111.93494 | 23074 ft | 423 kts | 155° |
| 2026-05-07 21:35 | 33.01871 | -111.92229 | 22509 ft | 450 kts | 154° |
| 2026-05-07 21:35 | 32.98904 | -111.90868 | 21958 ft | 455 kts | 154° |
| 2026-05-07 21:36 | 32.95932 | -111.89489 | 21402 ft | 452 kts | 154° |
| 2026-05-07 21:36 | 32.93019 | -111.88123 | 20870 ft | 447 kts | 154° |
| 2026-05-07 21:36 | 32.90197 | -111.86781 | 20344 ft | 444 kts | 154° |
| 2026-05-07 21:36 | 32.87312 | -111.85401 | 19795 ft | 440 kts | 154° |
| 2026-05-07 21:37 | 32.84493 | -111.84044 | 19281 ft | 435 kts | 154° |
| 2026-05-07 21:37 | 32.81663 | -111.82667 | 18716 ft | 430 kts | 154° |
| 2026-05-07 21:37 | 32.78906 | -111.81305 | 18166 ft | 426 kts | 153° |
| 2026-05-07 21:37 | 32.76236 | -111.79756 | 17620 ft | 419 kts | 145° |
| 2026-05-07 21:38 | 32.73866 | -111.77750 | 17093 ft | 415 kts | 140° |
| 2026-05-07 21:38 | 32.71589 | -111.75646 | 16566 ft | 411 kts | 138° |
| 2026-05-07 21:38 | 32.69312 | -111.73515 | 16029 ft | 408 kts | 139° |
| 2026-05-07 21:38 | 32.67162 | -111.71364 | 15496 ft | 403 kts | 133° |
| 2026-05-07 21:39 | 32.65195 | -111.68997 | 14969 ft | 400 kts | 131° |
| 2026-05-07 21:39 | 32.63271 | -111.66578 | 14444 ft | 397 kts | 130° |
| 2026-05-07 21:39 | 32.61376 | -111.64169 | 13917 ft | 395 kts | 130° |
| 2026-05-07 21:39 | 32.59511 | -111.61777 | 13393 ft | 392 kts | 130° |
| 2026-05-07 21:40 | 32.57650 | -111.59378 | 12856 ft | 390 kts | 130° |
| 2026-05-07 21:40 | 32.55808 | -111.56997 | 12323 ft | 389 kts | 130° |
| 2026-05-07 21:40 | 32.53989 | -111.54637 | 11792 ft | 387 kts | 130° |
| 2026-05-07 21:40 | 32.52182 | -111.52291 | 11279 ft | 386 kts | 130° |
| 2026-05-07 21:41 | 32.50364 | -111.49925 | 10768 ft | 384 kts | 130° |
| 2026-05-07 21:41 | 32.48554 | -111.47558 | 10254 ft | 382 kts | 130° |
| 2026-05-07 21:41 | 32.46783 | -111.45239 | 9751 ft | 380 kts | 130° |
| 2026-05-07 21:41 | 32.45002 | -111.42920 | 9244 ft | 373 kts | 130° |
| 2026-05-07 21:42 | 32.43288 | -111.40685 | 8758 ft | 353 kts | 130° |
| 2026-05-07 21:42 | 32.41673 | -111.38590 | 8388 ft | 322 kts | 130° |
| 2026-05-07 21:42 | 32.40203 | -111.36700 | 8226 ft | 290 kts | 130° |
| 2026-05-07 21:42 | 32.39092 | -111.34817 | 7997 ft | 263 kts | 109° |
| 2026-05-07 21:43 | 32.38856 | -111.32768 | 7722 ft | 241 kts | 81° |
| 2026-05-07 21:43 | 32.39451 | -111.30934 | 7040 ft | 238 kts | 55° |
| 2026-05-07 21:43 | 32.40450 | -111.29423 | 6310 ft | 230 kts | 49° |
| 2026-05-07 21:43 | 32.41512 | -111.28007 | 5578 ft | 227 kts | 47° |
| 2026-05-07 21:44 | 32.42606 | -111.26693 | 4851 ft | 225 kts | 35° |
| 2026-05-07 21:44 | 32.44065 | -111.26068 | 4089 ft | 226 kts | 1° |
| 2026-05-07 21:44 | 32.45586 | -111.26546 | 3436 ft | 224 kts | 337° |
| 2026-05-07 21:44 | 32.46772 | -111.27573 | 3241 ft | 200 kts | 318° |
| 2026-05-07 21:45 | 32.47700 | -111.28629 | 3368 ft | 168 kts | 315° |
| 2026-05-07 21:45 | 32.47907 | -111.29881 | 3560 ft | 163 kts | 246° |
| 2026-05-07 21:45 | 32.46954 | -111.30376 | 3174 ft | 157 kts | 159° |
| 2026-05-07 21:45 | 32.46379 | -111.29487 | 2760 ft | 137 kts | 74° |
| 2026-05-07 21:46 | 32.46999 | -111.28838 | 2430 ft | 126 kts | 0° |
| 2026-05-07 21:46 | 32.47904 | -111.29102 | 2416 ft | 135 kts | 335° |
| 2026-05-07 21:46 | 32.48660 | -111.29695 | 2451 ft | 126 kts | 317° |
| 2026-05-07 21:46 | 32.49293 | -111.30469 | 2309 ft | 131 kts | 314° |
| 2026-05-07 21:47 | 32.49918 | -111.31237 | 2088 ft | 126 kts | 315° |
| 2026-05-07 21:47 | 32.50528 | -111.31967 | 1902 ft | 119 kts | 314° |
| 2026-05-07 21:47 | 32.51038 | -111.32587 | 1890 ft | 81 kts | 314° |
| 2026-05-07 21:47 | 32.51283 | -111.32883 | 1886 ft | 21 kts | 315° |
| 2026-05-07 21:48 | 32.51326 | -111.32920 | 1885 ft | 3 kts | 33° |
| 2026-05-07 21:48 | 32.51346 | -111.32899 | 1885 ft | 3 kts | 44° |
| 2026-05-07 21:48 | 32.51364 | -111.32877 | 1885 ft | 3 kts | 45° |
| 2026-05-07 21:48 | 32.51380 | -111.32858 | 1885 ft | 3 kts | 46° |
| 2026-05-07 21:49 | 32.51396 | -111.32838 | 1885 ft | 3 kts | 47° |
| 2026-05-07 21:49 | 32.51409 | -111.32814 | 1886 ft | 3 kts | 83° |
| 2026-05-07 21:49 | 32.51391 | -111.32780 | 1886 ft | 6 kts | 135° |
| 2026-05-07 21:49 | 32.51356 | -111.32739 | 1887 ft | 7 kts | 134° |
| 2026-05-07 21:50 | 32.51313 | -111.32686 | 1888 ft | 9 kts | 138° |
| 2026-05-07 21:50 | 32.51258 | -111.32627 | 1889 ft | 11 kts | 143° |
| 2026-05-07 21:50 | 32.51192 | -111.32586 | 1890 ft | 9 kts | 148° |
| 2026-05-07 21:50 | 32.51113 | -111.32482 | 1891 ft | 24 kts | 120° |
| 2026-05-07 21:51 | 32.51031 | -111.32336 | 1891 ft | 20 kts | 134° |
| 2026-05-07 21:51 | 32.50938 | -111.32227 | 1893 ft | 17 kts | 136° |
| 2026-05-07 21:51 | 32.50857 | -111.32135 | 1894 ft | 15 kts | 136° |
| 2026-05-07 21:51 | 32.50785 | -111.32049 | 1894 ft | 13 kts | 123° |
| 2026-05-07 21:52 | 32.50779 | -111.31943 | 1895 ft | 12 kts | 73° |
| 2026-05-07 21:52 | 32.50796 | -111.31908 | 1896 ft | 0 kts | 46° |